createdAt,value
2018-10-15T00:00:46.530Z,91.9
2018-10-15T00:01:47.197Z,92.1
2018-10-15T00:02:47.867Z,92.0
2018-10-15T00:03:48.536Z,92.0
2018-10-15T00:04:49.244Z,92.8
2018-10-15T00:05:49.875Z,92.6
2018-10-15T00:06:50.585Z,92.8
2018-10-15T00:07:51.253Z,92.8
2018-10-15T00:08:51.922Z,92.6
2018-10-15T00:09:52.591Z,92.6
2018-10-15T00:10:53.260Z,92.8
2018-10-15T00:11:53.928Z,92.4
2018-10-15T00:12:54.598Z,92.8
2018-10-15T00:13:55.266Z,92.7
2018-10-15T00:14:55.935Z,92.9
2018-10-15T00:15:56.605Z,92.7
2018-10-15T00:16:57.273Z,92.6
2018-10-15T00:17:57.941Z,93.0
2018-10-15T00:18:58.613Z,93.1
2018-10-15T00:19:59.282Z,93.2
2018-10-15T00:20:59.951Z,92.8
2018-10-15T00:22:00.619Z,93.1
2018-10-15T00:23:01.288Z,93.3
2018-10-15T00:24:01.957Z,93.4
2018-10-15T00:25:02.626Z,93.3
2018-10-15T00:26:03.295Z,93.3
2018-10-15T00:27:03.963Z,93.4
2018-10-15T00:28:04.633Z,92.6
2018-10-15T00:29:05.301Z,93.4
2018-10-15T00:30:05.970Z,93.5
2018-10-15T00:31:06.639Z,93.0
2018-10-15T00:32:07.309Z,93.0
2018-10-15T00:33:07.982Z,92.9
2018-10-15T00:34:08.648Z,93.9
2018-10-15T00:35:09.315Z,93.6
2018-10-15T00:36:09.985Z,92.9
2018-10-15T00:37:10.653Z,93.8
2018-10-15T00:38:11.330Z,93.9
2018-10-15T00:39:12.035Z,93.8
2018-10-15T00:40:12.705Z,93.8
2018-10-15T00:41:13.373Z,94.0
2018-10-15T00:42:14.040Z,93.8
2018-10-15T00:43:14.713Z,93.9
2018-10-15T00:44:15.380Z,94.0
2018-10-15T00:45:16.051Z,93.8
2018-10-15T00:46:16.715Z,94.6
2018-10-15T00:47:17.383Z,94.5
2018-10-15T00:48:18.050Z,94.4
2018-10-15T00:49:18.721Z,94.4
2018-10-15T00:50:19.432Z,94.3
2018-10-15T00:51:20.131Z,94.3
2018-10-15T00:52:20.770Z,94.4
2018-10-15T00:53:21.439Z,94.8
2018-10-15T00:54:22.107Z,95.0
2018-10-15T00:55:22.777Z,94.6
2018-10-15T00:56:23.448Z,94.6
2018-10-15T00:57:24.116Z,95.1
2018-10-15T00:58:24.784Z,95.3
2018-10-15T00:59:25.456Z,95.1
2018-10-15T01:00:26.121Z,95.2
2018-10-15T01:01:26.791Z,94.9
2018-10-15T01:02:27.463Z,95.6
2018-10-15T01:03:28.129Z,96.0
2018-10-15T01:04:28.797Z,95.4
2018-10-15T01:05:29.465Z,95.1
2018-10-15T01:06:30.132Z,95.9
2018-10-15T01:07:30.800Z,96.0
2018-10-15T01:08:31.470Z,96.6
2018-10-15T01:09:32.140Z,96.2
2018-10-15T01:10:32.806Z,96.2
2018-10-15T01:11:33.475Z,96.5
2018-10-15T01:12:34.143Z,96.3
2018-10-15T01:13:34.819Z,96.2
2018-10-15T01:14:35.481Z,96.3
2018-10-15T01:15:36.150Z,96.3
2018-10-15T01:16:36.820Z,96.2
2018-10-15T01:17:37.507Z,96.5
2018-10-15T01:18:38.199Z,96.6
2018-10-15T01:19:38.867Z,96.7
2018-10-15T01:20:39.539Z,96.4
2018-10-15T01:21:40.208Z,96.8
2018-10-15T01:22:40.917Z,97.0
2018-10-15T01:23:41.586Z,96.4
2018-10-15T01:24:42.253Z,96.4
2018-10-15T01:25:42.922Z,96.3
2018-10-15T01:26:43.592Z,97.0
2018-10-15T01:27:44.301Z,97.2
2018-10-15T01:28:44.969Z,96.7
2018-10-15T01:29:45.636Z,96.7
2018-10-15T01:30:46.304Z,97.4
2018-10-15T01:31:46.974Z,97.2
2018-10-15T01:32:47.687Z,97.3
2018-10-15T01:33:48.354Z,96.7
2018-10-15T01:34:49.020Z,97.1
2018-10-15T01:35:49.689Z,97.2
2018-10-15T01:36:50.358Z,97.1
2018-10-15T01:37:51.031Z,97.0
2018-10-15T01:38:51.693Z,97.4
2018-10-15T01:39:52.363Z,97.5
2018-10-15T01:40:53.032Z,97.4
2018-10-15T01:41:53.700Z,97.2
2018-10-15T01:42:54.368Z,97.4
2018-10-15T01:43:55.036Z,97.4
2018-10-15T01:44:55.703Z,97.3
2018-10-15T01:45:56.372Z,97.4
2018-10-15T01:46:57.042Z,97.3
2018-10-15T01:47:57.710Z,96.9
2018-10-15T01:48:58.379Z,97.4
2018-10-15T01:49:59.046Z,97.4
2018-10-15T01:50:59.712Z,96.9
2018-10-15T01:52:00.382Z,97.4
2018-10-15T01:53:01.051Z,97.4
2018-10-15T01:54:01.718Z,97.1
2018-10-15T01:55:02.455Z,96.7
2018-10-15T01:56:03.091Z,97.1
2018-10-15T01:57:03.757Z,97.2
2018-10-15T01:58:04.425Z,97.4
2018-10-15T01:59:05.094Z,97.4
2018-10-15T02:00:05.764Z,97.4
2018-10-15T02:01:06.432Z,97.2
2018-10-15T02:02:07.099Z,97.4
2018-10-15T02:03:07.769Z,97.0
2018-10-15T02:04:08.436Z,97.4
2018-10-15T02:05:09.107Z,97.4
2018-10-15T02:06:09.777Z,97.2
2018-10-15T02:07:10.442Z,97.3
2018-10-15T02:08:11.111Z,97.2
2018-10-15T02:09:11.780Z,97.4
2018-10-15T02:10:12.450Z,97.3
2018-10-15T02:11:13.117Z,97.2
2018-10-15T02:12:13.827Z,97.4
2018-10-15T02:13:14.496Z,97.2
2018-10-15T02:14:15.164Z,97.5
2018-10-15T02:15:15.833Z,97.5
2018-10-15T02:16:16.530Z,97.2
2018-10-15T02:17:17.168Z,97.2
2018-10-15T02:18:17.836Z,97.2
2018-10-15T02:19:18.506Z,97.3
2018-10-15T02:20:19.171Z,97.0
2018-10-15T02:21:19.841Z,98.0
2018-10-15T02:22:20.508Z,97.7
2018-10-15T02:23:21.174Z,97.7
2018-10-15T02:24:21.842Z,97.9
2018-10-15T02:25:22.510Z,97.9
2018-10-15T02:26:23.178Z,98.0
2018-10-15T02:27:23.847Z,97.9
2018-10-15T02:28:24.516Z,98.0
2018-10-15T02:29:25.184Z,97.8
2018-10-15T02:30:25.851Z,97.9
2018-10-15T02:31:26.521Z,98.8
2018-10-15T02:32:27.189Z,98.6
2018-10-15T02:33:27.854Z,98.7
2018-10-15T02:34:28.523Z,98.4
2018-10-15T02:35:29.190Z,99.1
2018-10-15T02:36:29.856Z,98.7
2018-10-15T02:37:30.525Z,98.7
2018-10-15T02:38:31.196Z,98.6
2018-10-15T02:39:31.907Z,99.0
2018-10-15T02:40:32.575Z,98.8
2018-10-15T02:41:33.243Z,99.2
2018-10-15T02:42:33.911Z,99.2
2018-10-15T02:43:34.582Z,98.7
2018-10-15T02:44:35.250Z,99.0
2018-10-15T02:45:35.917Z,99.0
2018-10-15T02:46:36.586Z,99.4
2018-10-15T02:47:37.255Z,100.0
2018-10-15T02:48:37.923Z,100.0
2018-10-15T02:49:38.592Z,99.7
2018-10-15T02:50:39.260Z,99.4
2018-10-15T02:51:39.927Z,99.7
2018-10-15T02:52:40.595Z,99.7
2018-10-15T02:53:41.264Z,99.3
2018-10-15T02:54:41.933Z,99.4
2018-10-15T02:55:42.603Z,100.0
2018-10-15T02:56:43.272Z,99.8
2018-10-15T02:57:43.938Z,99.6
2018-10-15T02:58:44.607Z,99.9
2018-10-15T02:59:45.276Z,99.4
2018-10-15T03:00:45.945Z,100.0
2018-10-15T03:01:46.612Z,100.0
2018-10-15T03:02:47.282Z,100.0
2018-10-15T03:03:47.951Z,99.7
2018-10-15T03:04:48.620Z,100.0
2018-10-15T03:05:49.286Z,99.7
2018-10-15T03:06:49.957Z,99.9
2018-10-15T03:07:50.626Z,99.8
2018-10-15T03:08:51.294Z,99.9
2018-10-15T03:09:51.998Z,100.0
2018-10-15T03:10:52.676Z,99.5
2018-10-15T03:11:53.342Z,100.0
2018-10-15T03:12:54.021Z,100.0
2018-10-15T03:13:54.726Z,100.0
2018-10-15T03:14:55.397Z,100.0
2018-10-15T03:15:56.065Z,100.0
2018-10-15T03:16:56.734Z,100.0
2018-10-15T03:17:57.404Z,100.0
2018-10-15T03:18:58.073Z,100.0
2018-10-15T03:19:58.824Z,100.0
2018-10-15T03:20:59.408Z,100.0
2018-10-15T03:22:00.078Z,100.0
2018-10-15T03:23:00.745Z,100.0
2018-10-15T03:24:01.423Z,100.0
2018-10-15T03:25:02.085Z,100.0
2018-10-15T03:26:02.756Z,100.0
2018-10-15T03:27:03.424Z,100.0
2018-10-15T03:28:04.092Z,100.0
2018-10-15T03:29:04.772Z,100.0
2018-10-15T03:30:05.484Z,100.0
2018-10-15T03:31:06.142Z,100.0
2018-10-15T03:32:06.812Z,100.0
2018-10-15T03:33:07.524Z,100.0
2018-10-15T03:34:08.194Z,100.0
2018-10-15T03:35:08.862Z,100.0
2018-10-15T03:36:09.530Z,100.0
2018-10-15T03:37:10.202Z,100.0
2018-10-15T03:38:10.869Z,100.0
2018-10-15T03:39:11.538Z,100.0
2018-10-15T03:40:12.209Z,100.0
2018-10-15T03:41:12.877Z,100.0
2018-10-15T03:42:13.549Z,100.0
2018-10-15T03:43:14.213Z,100.0
2018-10-15T03:44:14.924Z,100.0
2018-10-15T03:45:15.595Z,100.0
2018-10-15T03:46:16.264Z,100.0
2018-10-15T03:47:16.933Z,100.0
2018-10-15T03:48:17.602Z,100.0
2018-10-15T03:49:18.270Z,100.0
2018-10-15T03:50:18.944Z,100.0
2018-10-15T03:51:19.608Z,100.0
2018-10-15T03:52:20.280Z,100.0
2018-10-15T03:53:20.948Z,100.0
2018-10-15T03:54:21.613Z,100.0
2018-10-15T03:55:22.281Z,100.0
2018-10-15T03:56:22.952Z,100.0
2018-10-15T03:57:23.623Z,100.0
2018-10-15T03:58:24.290Z,100.0
2018-10-15T03:59:24.959Z,100.0
2018-10-15T04:00:25.626Z,100.0
2018-10-15T04:01:26.298Z,100.0
2018-10-15T04:02:27.023Z,100.0
2018-10-15T04:03:27.636Z,100.0
2018-10-15T04:04:28.319Z,100.0
2018-10-15T04:05:28.974Z,100.0
2018-10-15T04:06:29.641Z,100.0
2018-10-15T04:07:30.312Z,100.0
2018-10-15T04:08:31.011Z,100.0
2018-10-15T04:09:31.648Z,100.0
2018-10-15T04:10:32.314Z,100.0
2018-10-15T04:11:32.982Z,100.0
2018-10-15T04:12:33.651Z,100.0
2018-10-15T04:13:34.350Z,100.0
2018-10-15T04:14:35.090Z,100.0
2018-10-15T04:15:35.686Z,100.0
2018-10-15T04:16:36.367Z,100.0
2018-10-15T04:17:37.034Z,100.0
2018-10-15T04:18:37.706Z,100.0
2018-10-15T04:19:38.372Z,100.0
2018-10-15T04:20:39.040Z,100.0
2018-10-15T04:21:39.710Z,100.0
2018-10-15T04:22:40.377Z,100.0
2018-10-15T04:23:41.045Z,100.0
2018-10-15T04:24:41.715Z,100.0
2018-10-15T04:25:42.383Z,100.0
2018-10-15T04:26:43.052Z,100.0
2018-10-15T04:27:43.722Z,100.0
2018-10-15T04:28:44.389Z,100.0
2018-10-15T04:29:45.062Z,100.0
2018-10-15T04:30:45.729Z,100.0
2018-10-15T04:31:46.396Z,100.0
2018-10-15T04:32:47.065Z,100.0
2018-10-15T04:33:47.736Z,100.0
2018-10-15T04:34:48.400Z,100.0
2018-10-15T04:35:49.070Z,100.0
2018-10-15T04:36:49.737Z,100.0
2018-10-15T04:37:50.456Z,100.0
2018-10-15T04:38:51.072Z,100.0
2018-10-15T04:39:51.739Z,100.0
2018-10-15T04:40:52.406Z,100.0
2018-10-15T04:41:53.075Z,100.0
2018-10-15T04:42:53.743Z,100.0
2018-10-15T04:43:54.411Z,100.0
2018-10-15T04:44:55.079Z,100.0
2018-10-15T04:45:55.748Z,100.0
2018-10-15T04:46:56.413Z,100.0
2018-10-15T04:47:57.082Z,100.0
2018-10-15T04:48:57.785Z,100.0
2018-10-15T04:49:58.447Z,100.0
2018-10-15T04:50:59.089Z,100.0
2018-10-15T04:51:59.755Z,100.0
2018-10-15T04:53:00.423Z,100.0
2018-10-15T04:54:01.092Z,100.0
2018-10-15T04:55:01.831Z,100.0
2018-10-15T04:56:02.427Z,100.0
2018-10-15T04:57:03.144Z,100.0
2018-10-15T04:58:03.810Z,100.0
2018-10-15T04:59:04.480Z,100.0
2018-10-15T05:00:05.160Z,100.0
2018-10-15T05:01:05.816Z,100.0
2018-10-15T05:02:06.526Z,100.0
2018-10-15T05:03:07.193Z,100.0
2018-10-15T05:04:07.861Z,100.0
2018-10-15T05:05:08.529Z,100.0
2018-10-15T05:06:09.232Z,100.0
2018-10-15T05:07:09.864Z,100.0
2018-10-15T05:08:10.531Z,100.0
2018-10-15T05:09:11.198Z,100.0
2018-10-15T05:10:11.865Z,100.0
2018-10-15T05:11:12.534Z,100.0
2018-10-15T05:12:13.241Z,100.0
2018-10-15T05:13:13.870Z,100.0
2018-10-15T05:14:14.543Z,100.0
2018-10-15T05:15:15.247Z,100.0
2018-10-15T05:16:15.918Z,100.0
2018-10-15T05:17:16.589Z,100.0
2018-10-15T05:18:17.344Z,100.0
2018-10-15T05:19:17.963Z,100.0
2018-10-15T05:20:18.633Z,100.0
2018-10-15T05:21:19.467Z,100.0
2018-10-15T05:22:20.007Z,100.0
2018-10-15T05:23:20.710Z,100.0
2018-10-15T05:24:21.454Z,100.0
2018-10-15T05:25:22.107Z,100.0
2018-10-15T05:26:22.777Z,100.0
2018-10-15T05:27:23.447Z,100.0
2018-10-15T05:28:24.116Z,100.0
2018-10-15T05:29:24.785Z,100.0
2018-10-15T05:30:25.589Z,100.0
2018-10-15T05:31:26.123Z,100.0
2018-10-15T05:32:26.793Z,100.0
2018-10-15T05:33:27.464Z,100.0
2018-10-15T05:34:28.133Z,100.0
2018-10-15T05:35:28.804Z,100.0
2018-10-15T05:36:29.491Z,100.0
2018-10-15T05:37:30.144Z,100.0
2018-10-15T05:38:30.812Z,100.0
2018-10-15T05:39:31.482Z,100.0
2018-10-15T05:40:32.150Z,100.0
2018-10-15T05:41:32.820Z,100.0
2018-10-15T05:42:33.490Z,100.0
2018-10-15T05:43:34.159Z,100.0
2018-10-15T05:44:34.873Z,100.0
2018-10-15T05:45:35.542Z,100.0
2018-10-15T05:46:36.308Z,100.0
2018-10-15T05:47:36.882Z,100.0
2018-10-15T05:48:37.551Z,100.0
2018-10-15T05:49:38.222Z,100.0
2018-10-15T05:50:38.892Z,100.0
2018-10-15T05:51:39.564Z,100.0
2018-10-15T05:52:40.233Z,100.0
2018-10-15T05:53:40.904Z,100.0
2018-10-15T05:54:41.576Z,100.0
2018-10-15T05:55:42.244Z,100.0
2018-10-15T05:56:42.916Z,100.0
2018-10-15T05:57:43.592Z,100.0
2018-10-15T05:58:44.303Z,100.0
2018-10-15T05:59:44.975Z,100.0
2018-10-15T06:00:45.649Z,100.0
2018-10-15T06:01:46.320Z,100.0
2018-10-15T06:02:46.989Z,100.0
2018-10-15T06:03:47.661Z,100.0
2018-10-15T06:04:48.333Z,100.0
2018-10-15T06:05:49.048Z,100.0
2018-10-15T06:06:49.719Z,100.0
2018-10-15T06:07:50.392Z,100.0
2018-10-15T06:08:51.064Z,100.0
2018-10-15T06:09:51.736Z,100.0
2018-10-15T06:10:52.404Z,100.0
2018-10-15T06:11:53.079Z,100.0
2018-10-15T06:12:53.761Z,100.0
2018-10-15T06:13:54.465Z,100.0
2018-10-15T06:14:55.138Z,100.0
2018-10-15T06:15:55.814Z,100.0
2018-10-15T06:16:56.487Z,100.0
2018-10-15T06:17:57.163Z,100.0
2018-10-15T06:18:57.835Z,100.0
2018-10-15T06:19:58.524Z,100.0
2018-10-15T06:20:59.222Z,100.0
2018-10-15T06:21:59.894Z,100.0
2018-10-15T06:23:00.589Z,100.0
2018-10-15T06:24:01.343Z,100.0
2018-10-15T06:25:01.959Z,100.0
2018-10-15T06:26:02.644Z,100.0
2018-10-15T06:27:03.307Z,100.0
2018-10-15T06:28:04.044Z,100.0
2018-10-15T06:29:04.654Z,100.0
2018-10-15T06:30:05.358Z,100.0
2018-10-15T06:31:06.002Z,100.0
2018-10-15T06:32:06.678Z,100.0
2018-10-15T06:33:07.349Z,100.0
2018-10-15T06:34:08.024Z,100.0
2018-10-15T06:35:08.696Z,100.0
2018-10-15T06:36:09.391Z,100.0
2018-10-15T06:37:10.099Z,100.0
2018-10-15T06:38:10.817Z,100.0
2018-10-15T06:39:11.517Z,100.0
2018-10-15T06:40:12.144Z,100.0
2018-10-15T06:41:12.834Z,100.0
2018-10-15T06:42:13.550Z,100.0
2018-10-15T06:43:14.165Z,100.0
2018-10-15T06:44:14.842Z,100.0
2018-10-15T06:45:15.598Z,100.0
2018-10-15T06:46:16.273Z,100.0
2018-10-15T06:47:16.979Z,100.0
2018-10-15T06:48:17.567Z,100.0
2018-10-15T06:49:18.252Z,100.0
2018-10-15T06:50:18.917Z,100.0
2018-10-15T06:51:19.622Z,100.0
2018-10-15T06:52:20.299Z,100.0
2018-10-15T06:53:21.082Z,100.0
2018-10-15T06:54:21.695Z,100.0
2018-10-15T06:55:22.512Z,100.0
2018-10-15T06:56:23.045Z,100.0
2018-10-15T06:57:23.720Z,100.0
2018-10-15T06:58:24.391Z,100.0
2018-10-15T06:59:25.149Z,100.0
2018-10-15T07:00:25.775Z,100.0
2018-10-15T07:01:26.449Z,100.0
2018-10-15T07:02:27.121Z,100.0
2018-10-15T07:03:27.837Z,100.0
2018-10-15T07:04:28.508Z,99.8
2018-10-15T07:05:29.181Z,99.7
2018-10-15T07:06:29.853Z,99.8
2018-10-15T07:07:30.660Z,99.8
2018-10-15T07:08:31.200Z,99.9
2018-10-15T07:09:31.874Z,100.0
2018-10-15T07:10:32.548Z,99.3
2018-10-15T07:11:33.220Z,99.5
2018-10-15T07:12:33.894Z,99.3
2018-10-15T07:13:34.618Z,99.2
2018-10-15T07:14:35.339Z,98.8
2018-10-15T07:15:35.998Z,99.0
2018-10-15T07:16:36.672Z,99.3
2018-10-15T07:17:37.344Z,98.8
2018-10-15T07:18:38.016Z,98.8
2018-10-15T07:19:38.688Z,98.8
2018-10-15T07:20:39.421Z,98.3
2018-10-15T07:21:40.037Z,98.7
2018-10-15T07:22:40.749Z,98.5
2018-10-15T07:23:41.423Z,98.6
2018-10-15T07:24:42.095Z,98.6
2018-10-15T07:25:42.769Z,98.2
2018-10-15T07:26:43.441Z,97.5
2018-10-15T07:27:44.116Z,97.7
2018-10-15T07:28:44.787Z,97.4
2018-10-15T07:29:45.461Z,97.5
2018-10-15T07:30:46.132Z,97.5
2018-10-15T07:31:46.808Z,97.6
2018-10-15T07:32:47.525Z,97.1
2018-10-15T07:33:48.197Z,96.7
2018-10-15T07:34:48.871Z,96.7
2018-10-15T07:35:49.543Z,95.8
2018-10-15T07:36:50.216Z,95.6
2018-10-15T07:37:50.890Z,95.1
2018-10-15T07:38:51.562Z,94.3
2018-10-15T07:39:52.234Z,93.4
2018-10-15T07:40:52.908Z,93.0
2018-10-15T07:41:53.580Z,92.5
2018-10-15T07:42:54.254Z,92.0
2018-10-15T07:43:54.934Z,91.2
2018-10-15T07:44:55.601Z,90.8
2018-10-15T07:45:56.279Z,90.8
2018-10-15T07:46:56.948Z,90.6
2018-10-15T07:47:57.622Z,89.8
2018-10-15T07:48:58.293Z,89.5
2018-10-15T07:49:58.969Z,89.4
2018-10-15T07:50:59.641Z,88.7
2018-10-15T07:52:00.329Z,88.4
2018-10-15T07:53:01.150Z,88.8
2018-10-15T07:54:01.800Z,88.6
2018-10-15T07:55:02.428Z,88.3
2018-10-15T07:56:03.160Z,88.7
2018-10-15T07:57:03.775Z,88.8
2018-10-15T07:58:04.494Z,88.0
2018-10-15T07:59:05.139Z,88.2
2018-10-15T08:00:05.838Z,88.2
2018-10-15T08:01:06.550Z,88.3
2018-10-15T08:02:07.229Z,88.3
2018-10-15T08:03:07.933Z,88.1
2018-10-15T08:04:08.668Z,87.9
2018-10-15T08:05:09.456Z,88.2
2018-10-15T08:06:10.027Z,88.1
2018-10-15T08:07:10.704Z,88.2
2018-10-15T08:08:11.423Z,88.1
2018-10-15T08:09:12.084Z,87.9
2018-10-15T08:10:12.843Z,87.9
2018-10-15T08:11:13.553Z,88.2
2018-10-15T08:12:14.146Z,87.7
2018-10-15T08:13:14.819Z,87.4
2018-10-15T08:14:15.528Z,87.6
2018-10-15T08:15:16.233Z,87.5
2018-10-15T08:16:16.954Z,87.5
2018-10-15T08:17:17.626Z,87.2
2018-10-15T08:18:18.342Z,87.6
2018-10-15T08:19:19.014Z,87.0
2018-10-15T08:20:19.751Z,87.2
2018-10-15T08:21:20.362Z,87.1
2018-10-15T08:22:21.107Z,87.0
2018-10-15T08:23:21.710Z,86.7
2018-10-15T08:24:22.385Z,87.2
2018-10-15T08:25:23.103Z,87.0
2018-10-15T08:26:23.768Z,87.2
2018-10-15T08:27:24.441Z,87.2
2018-10-15T08:28:25.126Z,86.5
2018-10-15T08:29:25.849Z,86.3
2018-10-15T08:30:26.500Z,85.9
2018-10-15T08:31:27.172Z,85.7
2018-10-15T08:32:27.845Z,85.1
2018-10-15T08:33:28.564Z,85.2
2018-10-15T08:34:29.258Z,84.9
2018-10-15T08:35:29.972Z,84.5
2018-10-15T08:36:30.673Z,84.4
2018-10-15T08:37:31.350Z,84.5
2018-10-15T08:38:32.025Z,84.0
2018-10-15T08:39:32.701Z,83.3
2018-10-15T08:40:33.378Z,83.4
2018-10-15T08:41:34.058Z,82.2
2018-10-15T08:42:34.771Z,81.8
2018-10-15T08:43:35.449Z,81.4
2018-10-15T08:44:36.124Z,81.2
2018-10-15T08:45:36.801Z,80.8
2018-10-15T08:46:37.475Z,80.7
2018-10-15T08:47:38.150Z,80.2
2018-10-15T08:48:38.827Z,79.7
2018-10-15T08:49:39.514Z,80.7
2018-10-15T08:50:40.352Z,80.3
2018-10-15T08:51:40.936Z,80.4
2018-10-15T08:52:41.668Z,80.3
2018-10-15T08:53:42.366Z,80.4
2018-10-15T08:54:43.044Z,79.8
2018-10-15T08:55:43.767Z,78.9
2018-10-15T08:56:44.403Z,79.2
2018-10-15T08:57:45.070Z,78.8
2018-10-15T08:58:45.747Z,77.9
2018-10-15T08:59:46.428Z,77.6
2018-10-15T09:00:47.101Z,77.1
2018-10-15T09:01:47.833Z,76.6
2018-10-15T09:02:48.543Z,76.0
2018-10-15T09:03:49.224Z,76.8
2018-10-15T09:04:49.860Z,75.9
2018-10-15T09:05:50.519Z,75.6
2018-10-15T09:06:51.252Z,75.4
2018-10-15T09:07:52.284Z,74.3
2018-10-15T09:08:52.658Z,74.7
2018-10-15T09:09:53.362Z,74.2
2018-10-15T09:10:53.941Z,74.3
2018-10-15T09:11:54.614Z,74.4
2018-10-15T09:12:55.366Z,74.7
2018-10-15T09:13:55.969Z,74.2
2018-10-15T09:14:56.647Z,74.1
2018-10-15T09:15:57.392Z,74.0
2018-10-15T09:16:58.003Z,73.4
2018-10-15T09:17:58.774Z,73.0
2018-10-15T09:18:59.457Z,72.6
2018-10-15T09:20:00.138Z,71.8
2018-10-15T09:21:00.804Z,71.8
2018-10-15T09:22:01.490Z,71.8
2018-10-15T09:23:02.107Z,71.2
2018-10-15T09:24:02.862Z,71.1
2018-10-15T09:25:03.539Z,71.1
2018-10-15T09:26:04.232Z,70.6
2018-10-15T09:27:04.831Z,70.1
2018-10-15T09:28:05.531Z,69.7
2018-10-15T09:29:06.207Z,69.8
2018-10-15T09:30:06.954Z,69.8
2018-10-15T09:31:07.726Z,69.7
2018-10-15T09:32:08.241Z,69.8
2018-10-15T09:33:08.916Z,69.4
2018-10-15T09:34:09.597Z,69.4
2018-10-15T09:35:10.275Z,68.7
2018-10-15T09:36:10.950Z,68.6
2018-10-15T09:37:11.628Z,68.7
2018-10-15T09:38:12.307Z,68.5
2018-10-15T09:39:13.067Z,68.1
2018-10-15T09:40:13.663Z,67.6
2018-10-15T09:41:14.368Z,67.3
2018-10-15T09:42:15.061Z,66.9
2018-10-15T09:43:15.738Z,66.4
2018-10-15T09:44:16.419Z,66.6
2018-10-15T09:45:17.136Z,66.5
2018-10-15T09:46:17.814Z,65.7
2018-10-15T09:47:18.490Z,65.8
2018-10-15T09:48:19.168Z,65.6
2018-10-15T09:49:19.855Z,65.6
2018-10-15T09:50:20.636Z,66.4
2018-10-15T09:51:21.322Z,66.4
2018-10-15T09:52:22.005Z,66.8
2018-10-15T09:53:22.746Z,66.7
2018-10-15T09:54:23.374Z,65.7
2018-10-15T09:55:24.055Z,65.5
2018-10-15T09:56:24.790Z,65.6
2018-10-15T09:57:25.470Z,65.6
2018-10-15T09:58:26.153Z,65.6
2018-10-15T09:59:26.841Z,65.6
2018-10-15T10:00:27.624Z,65.6
2018-10-15T10:01:28.355Z,65.4
2018-10-15T10:02:29.090Z,66.3
2018-10-15T10:03:29.824Z,66.2
2018-10-15T10:04:30.508Z,65.7
2018-10-15T10:05:31.191Z,65.3
2018-10-15T10:06:31.876Z,65.7
2018-10-15T10:07:32.646Z,65.6
2018-10-15T10:08:33.295Z,65.3
2018-10-15T10:09:33.979Z,65.3
2018-10-15T10:10:34.714Z,64.8
2018-10-15T10:11:35.400Z,64.6
2018-10-15T10:12:36.083Z,64.5
2018-10-15T10:13:36.819Z,64.3
2018-10-15T10:14:37.562Z,64.1
2018-10-15T10:15:38.282Z,63.8
2018-10-15T10:16:38.963Z,63.5
2018-10-15T10:17:39.805Z,63.0
2018-10-15T10:18:40.338Z,63.6
2018-10-15T10:19:41.017Z,63.2
2018-10-15T10:20:41.758Z,63.2
2018-10-15T10:21:42.539Z,63.2
2018-10-15T10:22:43.213Z,62.8
2018-10-15T10:23:43.889Z,62.2
2018-10-15T10:24:44.587Z,61.8
2018-10-15T10:25:45.308Z,61.5
2018-10-15T10:26:46.077Z,61.2
2018-10-15T10:27:46.722Z,60.5
2018-10-15T10:28:47.568Z,60.8
2018-10-15T10:29:48.097Z,60.4
2018-10-15T10:30:48.885Z,60.1
2018-10-15T10:31:49.641Z,59.4
2018-10-15T10:32:50.337Z,59.3
2018-10-15T10:33:51.105Z,59.1
2018-10-15T10:34:51.849Z,59.2
2018-10-15T10:35:52.617Z,59.1
2018-10-15T10:36:53.326Z,58.6
2018-10-15T10:37:53.977Z,58.3
2018-10-15T10:38:54.760Z,58.3
2018-10-15T10:39:55.524Z,58.2
2018-10-15T10:40:56.174Z,57.7
2018-10-15T10:41:56.871Z,57.2
2018-10-15T10:42:57.642Z,57.5
2018-10-15T10:43:58.330Z,57.7
2018-10-15T10:44:59.128Z,57.0
2018-10-15T10:45:59.756Z,57.2
2018-10-15T10:47:00.512Z,57.2
2018-10-15T10:48:01.159Z,57.8
2018-10-15T10:49:01.867Z,57.2
2018-10-15T10:50:02.577Z,56.9
2018-10-15T10:51:03.317Z,56.8
2018-10-15T10:52:03.998Z,56.5
2018-10-15T10:53:04.687Z,56.5
2018-10-15T10:54:05.368Z,55.9
2018-10-15T10:55:06.102Z,56.0
2018-10-15T10:56:06.787Z,56.4
2018-10-15T10:57:07.471Z,56.5
2018-10-15T10:58:08.155Z,55.8
2018-10-15T10:59:08.888Z,55.7
2018-10-15T11:00:09.573Z,55.8
2018-10-15T11:01:10.256Z,56.1
2018-10-15T11:02:11.018Z,55.8
2018-10-15T11:03:11.627Z,56.4
2018-10-15T11:04:12.363Z,56.5
2018-10-15T11:05:13.048Z,56.3
2018-10-15T11:06:13.734Z,56.6
2018-10-15T11:07:14.469Z,56.4
2018-10-15T11:08:15.234Z,56.3
2018-10-15T11:09:15.841Z,56.6
2018-10-15T11:10:16.527Z,55.9
2018-10-15T11:11:17.212Z,55.9
2018-10-15T11:12:17.949Z,56.0
2018-10-15T11:13:18.638Z,56.0
2018-10-15T11:14:19.318Z,56.0
2018-10-15T11:15:20.002Z,55.6
2018-10-15T11:16:20.687Z,55.9
2018-10-15T11:17:21.422Z,55.9
2018-10-15T11:18:22.121Z,56.0
2018-10-15T11:19:22.799Z,55.7
2018-10-15T11:20:23.544Z,55.5
2018-10-15T11:21:24.258Z,55.8
2018-10-15T11:22:25.025Z,55.7
2018-10-15T11:23:25.678Z,55.5
2018-10-15T11:24:26.363Z,55.3
2018-10-15T11:25:27.047Z,55.3
2018-10-15T11:26:27.731Z,55.5
2018-10-15T11:27:28.468Z,55.5
2018-10-15T11:28:29.152Z,55.2
2018-10-15T11:29:29.855Z,54.7
2018-10-15T11:30:30.607Z,54.6
2018-10-15T11:31:31.308Z,54.2
2018-10-15T11:32:31.992Z,54.2
2018-10-15T11:33:32.728Z,54.6
2018-10-15T11:34:33.428Z,54.6
2018-10-15T11:35:34.141Z,54.3
2018-10-15T11:36:34.825Z,54.2
2018-10-15T11:37:35.568Z,54.1
2018-10-15T11:38:36.298Z,54.3
2018-10-15T11:39:36.980Z,54.2
2018-10-15T11:40:37.664Z,54.6
2018-10-15T11:41:38.352Z,54.4
2018-10-15T11:42:39.087Z,54.2
2018-10-15T11:43:39.916Z,54.7
2018-10-15T11:44:40.459Z,54.8
2018-10-15T11:45:41.198Z,55.3
2018-10-15T11:46:42.076Z,55.3
2018-10-15T11:47:42.666Z,54.9
2018-10-15T11:48:43.351Z,54.7
2018-10-15T11:49:44.090Z,54.5
2018-10-15T11:50:44.810Z,54.4
2018-10-15T11:51:45.496Z,54.7
2018-10-15T11:52:46.182Z,53.9
2018-10-15T11:53:46.970Z,53.2
2018-10-15T11:54:47.605Z,53.3
2018-10-15T11:55:48.338Z,53.3
2018-10-15T11:56:49.024Z,53.8
2018-10-15T11:57:49.710Z,53.1
2018-10-15T11:58:50.482Z,53.1
2018-10-15T11:59:51.135Z,53.0
2018-10-15T12:00:51.819Z,52.8
2018-10-15T12:01:52.505Z,53.0
2018-10-15T12:02:53.241Z,53.1
2018-10-15T12:03:53.975Z,53.2
2018-10-15T12:04:54.660Z,52.9
2018-10-15T12:05:55.347Z,53.1
2018-10-15T12:06:56.086Z,52.4
2018-10-15T12:07:56.770Z,52.6
2018-10-15T12:08:57.456Z,51.7
2018-10-15T12:09:58.144Z,51.7
2018-10-15T12:10:58.947Z,51.4
2018-10-15T12:11:59.566Z,51.2
2018-10-15T12:13:00.252Z,51.5
2018-10-15T12:14:00.994Z,50.8
2018-10-15T12:15:01.677Z,50.8
2018-10-15T12:16:02.362Z,50.8
2018-10-15T12:17:03.048Z,50.7
2018-10-15T12:18:03.735Z,50.8
2018-10-15T12:19:04.469Z,51.3
2018-10-15T12:20:05.157Z,51.5
2018-10-15T12:21:05.843Z,51.5
2018-10-15T12:22:06.558Z,51.5
2018-10-15T12:23:07.313Z,51.8
2018-10-15T12:24:08.000Z,51.9
2018-10-15T12:25:08.686Z,51.7
2018-10-15T12:26:09.423Z,51.6
2018-10-15T12:27:10.206Z,51.2
2018-10-15T12:28:10.892Z,51.3
2018-10-15T12:29:11.578Z,51.3
2018-10-15T12:30:12.267Z,51.6
2018-10-15T12:31:13.048Z,51.6
2018-10-15T12:32:13.731Z,51.7
2018-10-15T12:33:14.417Z,51.2
2018-10-15T12:34:15.105Z,51.6
2018-10-15T12:35:15.791Z,51.6
2018-10-15T12:36:16.528Z,52.1
2018-10-15T12:37:17.216Z,53.4
2018-10-15T12:38:17.903Z,53.6
2018-10-15T12:39:18.639Z,53.9
2018-10-15T12:40:19.327Z,54.2
2018-10-15T12:41:20.083Z,54.1
2018-10-15T12:42:20.701Z,54.5
2018-10-15T12:43:21.387Z,54.8
2018-10-15T12:44:22.123Z,55.1
2018-10-15T12:45:22.809Z,55.1
2018-10-15T12:46:23.499Z,55.2
2018-10-15T12:47:24.238Z,55.0
2018-10-15T12:48:25.016Z,54.3
2018-10-15T12:49:25.702Z,54.4
2018-10-15T12:50:26.439Z,54.0
2018-10-15T12:51:27.125Z,54.0
2018-10-15T12:52:27.811Z,54.2
2018-10-15T12:53:28.531Z,54.0
2018-10-15T12:54:29.235Z,53.9
2018-10-15T12:55:29.926Z,53.8
2018-10-15T12:56:30.658Z,53.9
2018-10-15T12:57:31.344Z,54.3
2018-10-15T12:58:32.078Z,54.4
2018-10-15T12:59:32.763Z,54.4
2018-10-15T13:00:33.452Z,55.2
2018-10-15T13:01:34.138Z,55.3
2018-10-15T13:02:34.875Z,55.4
2018-10-15T13:03:35.561Z,55.2
2018-10-15T13:04:36.296Z,55.2
2018-10-15T13:05:36.982Z,55.8
2018-10-15T13:06:37.721Z,55.9
2018-10-15T13:07:38.405Z,55.8
2018-10-15T13:08:39.189Z,55.8
2018-10-15T13:09:39.875Z,55.1
2018-10-15T13:10:40.610Z,55.2
2018-10-15T13:11:41.295Z,55.6
2018-10-15T13:12:41.982Z,55.2
2018-10-15T13:13:42.729Z,55.4
2018-10-15T13:14:43.354Z,55.5
2018-10-15T13:15:44.091Z,55.6
2018-10-15T13:16:44.825Z,55.3
2018-10-15T13:17:45.510Z,55.3
2018-10-15T13:18:46.198Z,55.1
2018-10-15T13:19:46.936Z,54.6